Time;durP1;ratioP1;P1;durP2;ratioP2;P2;SDS_P1;SDS_P2;PMS_P1;PMS_P2;Temp;Humidity;BMP_temperature;BMP_pressure;BME280_temperature;BME280_humidity;BME280_pressure;Samples;Min_cycle;Max_cycle;Signal;HPM_P1;HPM_P2
2022/11/02 00:00:41;;;;;;;42.50;23.52;;;22.10;99.90;;;;;;5074273;28;20044;-51
2022/11/02 00:03:07;;;;;;;33.72;23.77;;;22.00;99.90;;;;;;5074409;28;20032;-51
2022/11/02 00:05:32;;;;;;;49.20;23.80;;;22.00;99.90;;;;;;5074429;28;20029;-52
2022/11/02 00:07:58;;;;;;;43.80;24.77;;;22.00;99.90;;;;;;5074209;28;20031;-51
2022/11/02 00:10:24;;;;;;;35.33;23.25;;;22.00;99.90;;;;;;5074149;28;20020;-51
2022/11/02 00:12:51;;;;;;;37.45;24.13;;;22.00;99.90;;;;;;5074157;28;20035;-51
2022/11/02 00:15:17;;;;;;;44.90;23.65;;;22.00;99.90;;;;;;5074132;28;20089;-51
2022/11/02 00:17:49;;;;;;;39.75;22.10;;;22.00;99.90;;;;;;5074041;28;20025;-51
2022/11/02 00:20:17;;;;;;;30.98;19.48;;;21.90;99.90;;;;;;5074080;28;20024;-51
2022/11/02 00:22:44;;;;;;;29.27;19.08;;;21.90;99.90;;;;;;5074099;28;20384;-51
2022/11/02 00:25:12;;;;;;;35.17;19.75;;;21.90;99.90;;;;;;5074068;28;20024;-51
2022/11/02 00:27:41;;;;;;;34.33;19.20;;;21.90;99.90;;;;;;5074083;28;20108;-51
2022/11/02 00:30:07;;;;;;;32.50;19.13;;;21.90;99.90;;;;;;5073993;28;20070;-51
2022/11/02 00:32:33;;;;;;;28.70;18.00;;;21.90;99.90;;;;;;5073844;28;20025;-51
2022/11/02 00:34:59;;;;;;;29.92;16.55;;;21.90;99.90;;;;;;5073720;28;20090;-51
2022/11/02 00:37:25;;;;;;;30.17;17.73;;;21.90;99.90;;;;;;5073710;28;20067;-51
2022/11/02 00:39:50;;;;;;;34.65;15.50;;;21.90;99.90;;;;;;5073788;28;20070;-51
2022/11/02 00:42:16;;;;;;;33.25;16.50;;;21.90;99.90;;;;;;5073654;28;20058;-51
2022/11/02 00:44:42;;;;;;;24.02;14.88;;;21.90;99.90;;;;;;5073708;28;20457;-51
2022/11/02 00:47:08;;;;;;;38.00;17.42;;;21.80;99.90;;;;;;5073426;28;20048;-52
2022/11/02 00:49:33;;;;;;;27.95;15.00;;;21.80;99.90;;;;;;5073404;28;20027;-51
2022/11/02 00:51:59;;;;;;;25.50;16.35;;;21.80;99.90;;;;;;5073400;28;20032;-51
2022/11/02 00:54:25;;;;;;;33.72;18.45;;;21.80;99.90;;;;;;5073334;28;20020;-52
2022/11/02 00:56:50;;;;;;;35.05;18.63;;;21.80;99.90;;;;;;5073390;28;20022;-51
2022/11/02 00:59:16;;;;;;;36.33;20.77;;;21.80;99.90;;;;;;5073846;28;20459;-52
2022/11/02 01:01:46;;;;;;;37.45;18.90;;;21.80;99.90;;;;;;5072873;28;20045;-51
2022/11/02 01:04:13;;;;;;;35.65;18.90;;;21.80;99.90;;;;;;5073345;28;20476;-50
2022/11/02 01:06:39;;;;;;;31.67;17.60;;;21.80;99.90;;;;;;5073287;28;20070;-51
2022/11/02 01:09:05;;;;;;;25.35;16.38;;;21.70;99.90;;;;;;5073387;28;20431;-50
2022/11/02 01:11:31;;;;;;;29.48;15.43;;;21.70;99.90;;;;;;5073361;28;20017;-50
2022/11/02 01:13:56;;;;;;;27.58;15.32;;;21.70;99.90;;;;;;5073107;28;20016;-51
2022/11/02 01:16:22;;;;;;;29.52;15.20;;;21.70;99.90;;;;;;5073233;28;20032;-51
2022/11/02 01:18:53;;;;;;;26.40;11.70;;;21.70;99.90;;;;;;5073300;28;20151;-51
2022/11/02 01:21:19;;;;;;;16.13;10.55;;;21.70;99.90;;;;;;5073110;28;20041;-51
2022/11/02 01:23:45;;;;;;;19.33;10.60;;;21.70;99.90;;;;;;5072950;28;20472;-50
2022/11/02 01:26:11;;;;;;;21.00;13.25;;;21.70;99.90;;;;;;5073093;28;20028;-50
2022/11/02 01:28:38;;;;;;;28.92;13.23;;;21.70;99.90;;;;;;5073079;28;20024;-50
2022/11/02 01:31:04;;;;;;;27.50;11.98;;;21.70;99.90;;;;;;5073047;28;20024;-50
2022/11/02 01:33:31;;;;;;;26.65;15.65;;;21.70;99.90;;;;;;5072976;28;20046;-51
2022/11/02 01:35:57;;;;;;;28.17;15.68;;;21.70;99.90;;;;;;5072598;28;20016;-51
2022/11/02 01:38:23;;;;;;;23.67;13.48;;;21.70;99.90;;;;;;5072921;28;20546;-50
2022/11/02 01:40:49;;;;;;;29.77;13.52;;;21.70;99.90;;;;;;5072990;28;20044;-50
2022/11/02 01:43:23;;;;;;;19.33;11.52;;;21.70;99.90;;;;;;5072895;28;20507;-51
2022/11/02 01:45:55;;;;;;;20.35;9.85;;;21.70;99.90;;;;;;5072888;28;20082;-51
2022/11/02 01:48:29;;;;;;;17.52;8.85;;;21.70;99.90;;;;;;5072963;28;20025;-50
2022/11/02 01:50:56;;;;;;;20.13;10.98;;;21.70;99.90;;;;;;5055102;28;20540;-51
2022/11/02 01:53:22;;;;;;;29.80;12.25;;;21.70;99.90;;;;;;5054894;28;20029;-50
2022/11/02 01:55:49;;;;;;;21.40;14.32;;;21.70;99.90;;;;;;5072695;28;20052;-51
2022/11/02 01:58:15;;;;;;;27.05;14.82;;;21.70;99.90;;;;;;5054934;28;20366;-51
2022/11/02 02:00:41;;;;;;;28.27;14.27;;;21.70;99.90;;;;;;5073053;28;20051;-51
2022/11/02 02:03:17;;;;;;;19.80;12.73;;;21.70;99.90;;;;;;5072767;28;20081;-51
2022/11/02 02:06:07;;;;;;;21.80;12.13;;;21.70;99.90;;;;;;5054850;28;20357;-51
2022/11/02 02:08:37;;;;;;;18.95;9.10;;;21.70;99.90;;;;;;5058405;28;20032;-51
2022/11/02 02:11:26;;;;;;;13.68;8.45;;;21.70;99.90;;;;;;5072656;28;20044;-51
2022/11/02 02:14:00;;;;;;;19.05;9.32;;;21.60;99.90;;;;;;5072715;28;20066;-51
2022/11/02 02:16:47;;;;;;;17.48;9.93;;;21.60;99.90;;;;;;5072465;28;20021;-52
2022/11/02 02:19:22;;;;;;;24.90;9.15;;;21.60;99.90;;;;;;5054742;28;20379;-51
2022/11/02 02:22:21;;;;;;;25.25;10.32;;;21.60;99.90;;;;;;5072540;28;20032;-50
2022/11/02 02:25:06;;;;;;;18.17;11.55;;;21.70;99.90;;;;;;5072496;28;20040;-51
2022/11/02 02:27:47;;;;;;;24.90;12.50;;;21.60;99.90;;;;;;5072460;28;20025;-51
2022/11/02 02:30:15;;;;;;;30.83;14.50;;;21.60;99.90;;;;;;5072536;28;20033;-51
2022/11/02 02:32:58;;;;;;;24.67;13.90;;;21.60;99.90;;;;;;5072429;28;20594;-51
2022/11/02 02:35:23;;;;;;;23.63;13.05;;;21.60;99.90;;;;;;5072550;28;20024;-50
2022/11/02 02:37:58;;;;;;;30.17;14.57;;;21.60;99.90;;;;;;5072450;28;20134;-50
2022/11/02 02:40:28;;;;;;;19.15;12.15;;;21.60;99.90;;;;;;5072810;28;20472;-51
2022/11/02 02:43:12;;;;;;;30.15;13.55;;;21.60;99.90;;;;;;5072392;28;20033;-50
2022/11/02 02:45:53;;;;;;;25.75;13.07;;;21.60;99.90;;;;;;5072250;28;20036;-50
2022/11/02 02:48:21;;;;;;;21.95;11.18;;;21.60;99.90;;;;;;5073594;28;20446;-50
2022/11/02 02:50:56;;;;;;;26.05;12.10;;;21.60;99.90;;;;;;5075922;28;20032;-50
2022/11/02 02:53:32;;;;;;;22.23;12.60;;;21.60;99.90;;;;;;5075887;28;20107;-50
2022/11/02 02:56:01;;;;;;;22.15;12.25;;;21.70;99.90;;;;;;5075631;28;20031;-50
2022/11/02 02:58:44;;;;;;;17.75;11.55;;;21.70;99.90;;;;;;5075810;28;20045;-50
2022/11/02 03:01:13;;;;;;;23.17;11.07;;;21.70;99.90;;;;;;5075864;28;20043;-49
2022/11/02 03:03:41;;;;;;;22.17;11.95;;;21.60;99.90;;;;;;5075605;28;20035;-50
2022/11/02 03:06:09;;;;;;;20.33;12.52;;;21.70;99.90;;;;;;5075670;28;20028;-50
2022/11/02 03:08:38;;;;;;;24.85;12.57;;;21.60;99.90;;;;;;5057639;28;20048;-50
2022/11/02 03:11:13;;;;;;;22.65;11.50;;;21.60;99.90;;;;;;5075559;28;20020;-50
2022/11/02 03:14:06;;;;;;;21.63;10.80;;;21.60;99.90;;;;;;5075532;28;20104;-50
2022/11/02 03:17:14;;;;;;;22.63;11.82;;;21.70;99.90;;;;;;5075342;28;20020;-50
2022/11/02 03:19:57;;;;;;;27.13;11.73;;;21.70;99.90;;;;;;5075316;28;20024;-51
2022/11/02 03:22:38;;;;;;;26.23;11.45;;;21.70;99.90;;;;;;5075194;28;20070;-51
2022/11/02 03:25:11;;;;;;;20.38;12.13;;;21.70;99.90;;;;;;5075253;28;20059;-52
2022/11/02 03:27:52;;;;;;;18.20;10.18;;;21.60;99.90;;;;;;5057184;28;20538;-51
2022/11/02 03:30:21;;;;;;;17.27;10.48;;;21.70;99.90;;;;;;5075341;28;20040;-52
2022/11/02 03:32:50;;;;;;;23.80;11.65;;;21.60;99.90;;;;;;5075179;28;20037;-52
2022/11/02 03:35:32;;;;;;;27.52;10.93;;;21.70;99.90;;;;;;5075107;28;20035;-52
2022/11/02 03:38:03;;;;;;;19.75;9.60;;;21.70;99.90;;;;;;5075108;28;20031;-51
2022/11/02 03:40:34;;;;;;;17.70;9.20;;;21.70;99.90;;;;;;5074864;28;20032;-51
2022/11/02 03:43:02;;;;;;;17.35;9.40;;;21.60;99.90;;;;;;5074963;28;20415;-52
2022/11/02 03:45:54;;;;;;;21.58;10.88;;;21.60;99.90;;;;;;5074958;28;20480;-52
2022/11/02 03:48:22;;;;;;;22.55;10.80;;;21.60;99.90;;;;;;5074236;28;20178;-52
2022/11/02 03:50:51;;;;;;;22.00;9.95;;;21.60;99.90;;;;;;5074781;28;20428;-52
2022/11/02 03:53:19;;;;;;;21.80;9.93;;;21.60;99.90;;;;;;5074629;28;20448;-51
2022/11/02 03:55:53;;;;;;;20.15;8.98;;;21.60;99.90;;;;;;5074595;28;20021;-52
2022/11/02 03:58:18;;;;;;;22.08;9.38;;;21.60;99.90;;;;;;5074270;28;20032;-52
2022/11/02 04:00:55;;;;;;;25.23;8.70;;;21.60;99.90;;;;;;5074813;28;20047;-51
2022/11/02 04:03:23;;;;;;;22.30;9.40;;;21.70;99.90;;;;;;5074382;28;20563;-51
2022/11/02 04:05:48;;;;;;;20.27;7.80;;;21.60;99.90;;;;;;5074490;28;20039;-51
2022/11/02 04:08:20;;;;;;;19.52;9.00;;;21.70;99.90;;;;;;5056610;28;20033;-51
2022/11/02 04:16:19;;;;;;;29.77;10.20;;;21.70;99.90;;;;;;5074690;28;20039;-50
2022/11/02 04:21:30;;;;;;;21.92;13.38;;;21.70;99.90;;;;;;5074503;28;20124;-51
2022/11/02 04:26:40;;;;;;;28.85;13.35;;;21.70;99.90;;;;;;5074409;28;20035;-51
2022/11/02 04:29:06;;;;;;;22.98;12.20;;;21.60;99.90;;;;;;5056247;28;20016;-51
2022/11/02 04:31:32;;;;;;;22.92;12.60;;;21.70;99.90;;;;;;5074094;28;20047;-51
2022/11/02 04:33:58;;;;;;;24.77;15.10;;;21.70;99.90;;;;;;5073901;28;20476;-51
2022/11/02 04:36:25;;;;;;;27.33;14.32;;;21.70;99.90;;;;;;5073991;28;20533;-51
2022/11/02 04:38:51;;;;;;;31.13;13.77;;;21.60;99.90;;;;;;5073823;28;20052;-51
2022/11/02 04:44:04;;;;;;;20.80;10.75;;;21.60;99.90;;;;;;5073614;28;20043;-51
2022/11/02 04:46:33;;;;;;;21.65;9.77;;;21.60;99.90;;;;;;5055824;28;20063;-51
2022/11/02 04:48:59;;;;;;;18.92;8.50;;;21.60;99.90;;;;;;5073633;28;20067;-51
2022/11/02 04:51:27;;;;;;;19.58;8.32;;;21.60;99.90;;;;;;5073719;28;20052;-51
2022/11/02 04:53:54;;;;;;;16.20;7.97;;;21.60;99.90;;;;;;5073545;28;20025;-51
2022/11/02 04:56:20;;;;;;;20.52;8.27;;;21.60;99.90;;;;;;5055710;28;20029;-50
2022/11/02 04:58:50;;;;;;;20.40;9.70;;;21.60;99.90;;;;;;5055894;28;20024;-51
2022/11/02 05:01:18;;;;;;;21.13;9.10;;;21.60;99.90;;;;;;5086176;22;20083;-48
2022/11/02 05:03:48;;;;;;;21.00;9.95;;;21.60;99.90;;;;;;5073523;28;20040;-48
2022/11/02 05:06:15;;;;;;;18.77;10.30;;;21.60;99.90;;;;;;5073488;28;20020;-48
2022/11/02 05:08:41;;;;;;;23.30;10.68;;;21.60;99.90;;;;;;5073539;28;20040;-48
2022/11/02 05:11:08;;;;;;;19.58;10.23;;;21.60;99.90;;;;;;5072849;28;20020;-48
2022/11/02 05:13:34;;;;;;;20.75;10.38;;;21.50;99.90;;;;;;5073442;28;20024;-47
2022/11/02 05:16:00;;;;;;;25.27;12.18;;;21.50;99.90;;;;;;5073361;28;20472;-47
2022/11/02 05:18:27;;;;;;;25.77;10.55;;;21.50;99.90;;;;;;5073397;28;20111;-49
2022/11/02 05:20:56;;;;;;;22.45;10.95;;;21.60;99.90;;;;;;5073416;28;20025;-49
2022/11/02 05:23:22;;;;;;;24.05;10.55;;;21.50;99.90;;;;;;5055228;28;20157;-50
2022/11/02 05:25:56;;;;;;;21.00;11.82;;;21.50;99.90;;;;;;5073251;28;20025;-50
2022/11/02 05:28:23;;;;;;;28.65;12.15;;;21.50;99.90;;;;;;5073248;28;20025;-50
2022/11/02 05:30:49;;;;;;;25.77;11.52;;;21.50;99.90;;;;;;5073369;28;20028;-49
2022/11/02 05:33:15;;;;;;;24.15;11.88;;;21.50;99.90;;;;;;5055080;28;20021;-49
2022/11/02 05:35:41;;;;;;;22.75;11.70;;;21.50;99.90;;;;;;5073294;28;20017;-48
2022/11/02 05:38:07;;;;;;;22.52;11.00;;;21.50;99.90;;;;;;5073232;28;20036;-48
2022/11/02 05:40:33;;;;;;;18.48;9.57;;;21.50;99.90;;;;;;5073154;28;20029;-49
2022/11/02 05:42:59;;;;;;;20.30;10.35;;;21.50;99.90;;;;;;5055041;28;20054;-49
2022/11/02 05:45:26;;;;;;;19.42;9.10;;;21.50;99.90;;;;;;5054995;28;20024;-49
2022/11/02 05:47:51;;;;;;;17.40;9.48;;;21.40;99.90;;;;;;5072878;28;20037;-46
2022/11/02 05:50:17;;;;;;;20.10;9.98;;;21.40;99.90;;;;;;5073009;28;20047;-47
2022/11/02 05:52:43;;;;;;;36.15;10.13;;;21.30;99.90;;;;;;5072883;28;20028;-47
2022/11/02 05:55:09;;;;;;;16.83;8.43;;;21.30;99.90;;;;;;5072813;28;20040;-47
2022/11/02 05:57:35;;;;;;;17.15;7.03;;;21.30;99.90;;;;;;5072926;28;20020;-50
2022/11/02 06:00:02;;;;;;;16.65;7.68;;;21.20;99.90;;;;;;5072653;28;20428;-48
2022/11/02 06:02:28;;;;;;;15.25;7.18;;;21.20;99.90;;;;;;5072843;28;20423;-48
2022/11/02 06:04:54;;;;;;;16.90;7.28;;;21.20;99.90;;;;;;5054796;28;20175;-48
2022/11/02 06:07:19;;;;;;;20.05;8.75;;;21.20;99.90;;;;;;5072825;28;20044;-48
2022/11/02 06:09:45;;;;;;;18.13;7.20;;;21.10;99.90;;;;;;5072753;28;20499;-47
2022/11/02 06:12:11;;;;;;;20.10;7.53;;;21.10;99.90;;;;;;5073116;28;20443;-47
2022/11/02 06:14:37;;;;;;;19.45;8.82;;;21.10;99.90;;;;;;5072928;28;20566;-46
2022/11/02 06:17:02;;;;;;;18.70;8.13;;;21.10;99.90;;;;;;5072615;28;20530;-47
2022/11/02 06:19:28;;;;;;;23.88;8.18;;;21.10;99.90;;;;;;5072818;28;20074;-47
2022/11/02 06:21:54;;;;;;;29.15;9.13;;;21.10;99.90;;;;;;5073121;28;20020;-48
2022/11/02 06:24:19;;;;;;;31.50;8.38;;;21.10;99.90;;;;;;5076499;28;20039;-49
2022/11/02 06:26:45;;;;;;;29.95;7.70;;;21.10;99.90;;;;;;5076588;28;20028;-49
2022/11/02 06:29:11;;;;;;;25.75;8.15;;;21.10;99.90;;;;;;5076372;28;20017;-49
2022/11/02 06:31:37;;;;;;;26.48;8.52;;;21.10;99.90;;;;;;5058323;28;20103;-48
2022/11/02 06:34:03;;;;;;;21.65;7.47;;;21.00;99.90;;;;;;5076443;28;20524;-48
2022/11/02 06:36:29;;;;;;;28.92;8.52;;;21.00;99.90;;;;;;5076273;28;20380;-47
2022/11/02 06:38:55;;;;;;;32.83;10.18;;;21.00;99.90;;;;;;5076218;28;20048;-47
2022/11/02 06:41:20;;;;;;;22.85;8.60;;;21.00;99.90;;;;;;5076215;28;20025;-48
2022/11/02 06:43:46;;;;;;;32.85;8.57;;;21.00;99.90;;;;;;5076036;28;20032;-48
2022/11/02 06:46:12;;;;;;;22.38;9.05;;;21.00;99.90;;;;;;5076130;28;20388;-48
2022/11/02 06:48:37;;;;;;;21.25;7.72;;;21.00;99.90;;;;;;5058056;28;20035;-48
2022/11/02 06:51:05;;;;;;;25.55;8.70;;;21.00;99.90;;;;;;5075854;28;20047;-49
2022/11/02 06:53:31;;;;;;;17.88;8.52;;;21.00;99.90;;;;;;5076090;28;20017;-49
2022/11/02 06:55:58;;;;;;;25.40;9.93;;;20.90;99.90;;;;;;5058044;28;20106;-48
2022/11/02 06:58:25;;;;;;;22.20;10.40;;;20.90;99.90;;;;;;5075755;28;20024;-48
2022/11/02 07:00:59;;;;;;;28.50;12.43;;;21.00;99.90;;;;;;5075498;28;20100;-48
2022/11/02 07:03:26;;;;;;;26.00;13.38;;;20.90;99.90;;;;;;5075777;28;20032;-48
2022/11/02 07:05:52;;;;;;;27.17;13.73;;;21.00;99.90;;;;;;5075688;28;20024;-49
2022/11/02 07:08:19;;;;;;;27.58;13.60;;;21.00;99.90;;;;;;5075604;28;20090;-49
2022/11/02 07:10:45;;;;;;;26.67;13.68;;;21.00;99.90;;;;;;5075537;28;20025;-51
2022/11/02 07:13:11;;;;;;;26.23;15.05;;;21.00;99.90;;;;;;5057413;28;20419;-48
2022/11/02 07:15:37;;;;;;;32.30;14.70;;;21.10;99.90;;;;;;5057442;28;20074;-50
2022/11/02 07:18:02;;;;;;;29.92;14.20;;;21.10;99.90;;;;;;5075378;28;20035;-50
2022/11/02 07:20:29;;;;;;;26.05;13.98;;;21.10;99.90;;;;;;5075552;28;20070;-49
2022/11/02 07:22:57;;;;;;;23.60;14.40;;;21.10;99.90;;;;;;5075290;28;20035;-49
2022/11/02 07:25:23;;;;;;;30.35;14.07;;;21.10;99.90;;;;;;5075327;28;20099;-49
2022/11/02 07:27:49;;;;;;;28.73;15.30;;;21.10;99.90;;;;;;5075221;28;20032;-48
2022/11/02 07:30:15;;;;;;;27.42;14.48;;;21.20;99.90;;;;;;5057095;28;20036;-48
2022/11/02 07:32:45;;;;;;;24.13;15.10;;;21.20;99.90;;;;;;5075104;28;20016;-48
2022/11/02 07:35:14;;;;;;;29.67;14.95;;;21.20;99.90;;;;;;5056734;28;20103;-49
2022/11/02 07:37:40;;;;;;;39.20;17.65;;;21.30;99.90;;;;;;5057516;28;20096;-48
2022/11/02 07:40:07;;;;;;;31.40;16.80;;;21.30;99.90;;;;;;5075088;28;20032;-49
2022/11/02 07:42:34;;;;;;;35.35;17.20;;;21.40;99.90;;;;;;5074858;28;20063;-50
2022/11/02 07:45:00;;;;;;;37.55;19.02;;;21.40;99.90;;;;;;5074936;28;20070;-50
2022/11/02 07:47:26;;;;;;;33.40;19.55;;;21.40;99.90;;;;;;5075000;28;20026;-49
2022/11/02 07:49:52;;;;;;;34.85;19.90;;;21.50;99.90;;;;;;5074737;28;20078;-48
2022/11/02 07:52:18;;;;;;;33.83;18.67;;;21.50;99.90;;;;;;5074720;28;20025;-47
2022/11/02 07:54:43;;;;;;;35.50;21.77;;;21.50;99.90;;;;;;5074669;28;20049;-49
2022/11/02 07:57:09;;;;;;;39.97;24.30;;;21.50;99.90;;;;;;5074575;28;20032;-48
2022/11/02 07:59:35;;;;;;;42.67;22.75;;;21.60;99.90;;;;;;5074514;28;20093;-47
2022/11/02 08:02:01;;;;;;;35.20;19.48;;;21.60;99.90;;;;;;5074382;28;20119;-50
2022/11/02 08:04:27;;;;;;;30.77;18.42;;;21.60;99.90;;;;;;5074384;28;20035;-47
2022/11/02 08:06:53;;;;;;;34.45;18.23;;;21.70;99.90;;;;;;5074219;28;20016;-47
2022/11/02 08:09:19;;;;;;;32.83;17.67;;;21.70;99.90;;;;;;5056528;28;20040;-48
2022/11/02 08:11:44;;;;;;;35.47;19.38;;;21.70;99.90;;;;;;5074313;28;20029;-49
2022/11/02 08:14:10;;;;;;;42.67;18.75;;;21.70;99.90;;;;;;5056658;28;20028;-50
2022/11/02 08:16:36;;;;;;;29.42;18.23;;;21.80;99.90;;;;;;5074376;28;20012;-48
2022/11/02 08:19:02;;;;;;;26.77;15.80;;;21.80;99.90;;;;;;5074247;28;20032;-48
2022/11/02 08:21:27;;;;;;;29.88;18.20;;;21.90;99.90;;;;;;5074403;28;20117;-48
2022/11/02 08:23:54;;;;;;;25.77;17.35;;;21.90;99.90;;;;;;5074046;28;20051;-48
2022/11/02 08:26:20;;;;;;;35.42;19.25;;;22.00;99.90;;;;;;5074073;28;20017;-48
2022/11/02 08:28:46;;;;;;;33.53;19.45;;;22.00;99.90;;;;;;5074042;28;20055;-49
2022/11/02 08:31:16;;;;;;;32.60;19.90;;;22.10;99.90;;;;;;5073876;28;20017;-48
2022/11/02 08:33:44;;;;;;;28.98;20.08;;;22.10;99.90;;;;;;5073771;28;20062;-49
2022/11/02 08:36:11;;;;;;;32.33;18.95;;;22.20;99.90;;;;;;5073924;28;20058;-49
2022/11/02 08:38:38;;;;;;;44.55;22.40;;;22.20;99.90;;;;;;5073786;28;20036;-49
2022/11/02 08:41:04;;;;;;;34.83;18.83;;;22.20;99.90;;;;;;5072583;28;20020;-49
2022/11/02 08:43:29;;;;;;;30.25;18.42;;;22.30;99.90;;;;;;5073648;28;20648;-49
2022/11/02 08:45:59;;;;;;;30.77;17.52;;;22.30;99.90;;;;;;5072765;28;20020;-48
2022/11/02 08:48:26;;;;;;;37.30;16.75;;;22.30;99.90;;;;;;5073716;28;20027;-49
2022/11/02 08:50:52;;;;;;;24.83;14.33;;;22.40;99.90;;;;;;5055824;28;20051;-48
2022/11/02 08:53:17;;;;;;;30.30;19.73;;;22.40;99.90;;;;;;5073522;28;20025;-48
2022/11/02 08:55:43;;;;;;;27.08;18.80;;;22.40;99.90;;;;;;5073607;28;20479;-48
2022/11/02 08:58:09;;;;;;;28.02;16.58;;;22.50;99.90;;;;;;5055566;28;20032;-48
2022/11/02 09:00:35;;;;;;;29.15;15.35;;;22.50;99.90;;;;;;5073339;28;20396;-48
2022/11/02 09:03:03;;;;;;;35.20;18.17;;;22.60;99.90;;;;;;5073314;28;20044;-48
2022/11/02 09:05:35;;;;;;;28.27;16.33;;;22.60;99.90;;;;;;5073693;28;20017;-48
2022/11/02 09:08:04;;;;;;;30.98;17.52;;;22.60;99.90;;;;;;5055499;28;20029;-49
2022/11/02 09:10:32;;;;;;;24.23;15.90;;;22.70;99.90;;;;;;5073298;28;20052;-48
2022/11/02 09:12:59;;;;;;;44.25;18.35;;;22.70;99.90;;;;;;5073248;28;20560;-49
2022/11/02 09:15:25;;;;;;;35.03;17.00;;;22.80;99.90;;;;;;5073109;28;20031;-48
2022/11/02 09:17:51;;;;;;;34.17;15.73;;;22.80;99.90;;;;;;5073107;28;20437;-49
2022/11/02 09:20:17;;;;;;;27.73;14.63;;;22.80;99.90;;;;;;5073260;28;20085;-48
2022/11/02 09:22:43;;;;;;;25.77;15.93;;;22.90;99.90;;;;;;5073053;28;20152;-48
2022/11/02 09:25:10;;;;;;;23.95;12.65;;;22.90;99.90;;;;;;5073606;28;20372;-49
2022/11/02 09:27:36;;;;;;;24.58;12.15;;;23.00;99.90;;;;;;5073260;28;20369;-48
2022/11/02 09:30:03;;;;;;;15.75;9.68;;;23.10;99.90;;;;;;5073143;28;20027;-49
2022/11/02 09:32:32;;;;;;;27.65;15.63;;;23.10;99.90;;;;;;5072981;28;20028;-48
2022/11/02 09:35:04;;;;;;;19.90;12.73;;;23.20;99.90;;;;;;5055542;28;20021;-49
2022/11/02 09:37:30;;;;;;;26.95;13.93;;;23.30;99.90;;;;;;5072995;28;20025;-49
2022/11/02 09:39:57;;;;;;;28.67;15.55;;;23.30;99.90;;;;;;5072929;28;20099;-48
2022/11/02 09:42:42;;;;;;;20.95;13.23;;;23.40;99.90;;;;;;5072958;28;20041;-48
2022/11/02 09:45:16;;;;;;;25.63;13.85;;;23.50;99.90;;;;;;5072712;28;20021;-48
2022/11/02 09:47:52;;;;;;;21.55;12.52;;;23.50;99.90;;;;;;5072889;28;20063;-48
2022/11/02 09:50:35;;;;;;;21.98;11.50;;;23.60;99.90;;;;;;5055622;28;20433;-48
2022/11/02 09:53:06;;;;;;;20.80;13.13;;;23.70;99.90;;;;;;5072884;28;20021;-48
2022/11/02 09:55:36;;;;;;;27.05;12.30;;;23.80;99.90;;;;;;5055376;28;20404;-48
2022/11/02 09:58:20;;;;;;;27.70;12.05;;;23.80;99.90;;;;;;5075401;28;20024;-48
2022/11/02 10:00:48;;;;;;;22.90;12.45;;;23.90;99.90;;;;;;5076531;28;20052;-49
2022/11/02 10:03:38;;;;;;;22.00;13.38;;;23.90;99.90;;;;;;5076674;28;20047;-50
2022/11/02 10:06:14;;;;;;;24.15;12.15;;;24.00;99.90;;;;;;5076701;28;20013;-47
2022/11/02 10:08:58;;;;;;;24.98;12.95;;;24.00;99.90;;;;;;5076773;28;20488;-48
2022/11/02 10:11:41;;;;;;;24.08;12.52;;;24.10;99.90;;;;;;5076570;28;20035;-48
2022/11/02 10:14:19;;;;;;;21.85;13.00;;;24.10;99.90;;;;;;5076372;28;20035;-48
2022/11/02 10:16:54;;;;;;;25.27;11.45;;;24.20;99.90;;;;;;5076552;28;20021;-48
2022/11/02 10:19:20;;;;;;;22.90;12.68;;;24.30;99.90;;;;;;5076549;28;20028;-48
2022/11/02 10:21:53;;;;;;;22.25;10.80;;;24.30;99.90;;;;;;5076392;28;20042;-48
2022/11/02 10:24:33;;;;;;;20.48;11.77;;;24.30;99.90;;;;;;5076360;28;20039;-48
2022/11/02 10:27:01;;;;;;;24.02;12.18;;;24.40;99.90;;;;;;5076293;28;20026;-48
2022/11/02 10:29:39;;;;;;;26.48;13.85;;;24.40;99.90;;;;;;5076293;28;20029;-49
2022/11/02 10:32:09;;;;;;;24.65;12.98;;;24.50;99.90;;;;;;5076339;28;20031;-48
2022/11/02 10:34:35;;;;;;;20.13;12.40;;;24.50;99.90;;;;;;5076255;28;20027;-48
2022/11/02 10:37:04;;;;;;;28.92;13.85;;;24.50;99.90;;;;;;5076078;28;20025;-48
2022/11/02 10:39:44;;;;;;;27.50;15.10;;;24.50;99.90;;;;;;5058043;28;20060;-48
2022/11/02 10:42:31;;;;;;;21.67;12.88;;;24.50;99.90;;;;;;5059694;28;20154;-48
2022/11/02 10:45:34;;;;;;;26.65;14.45;;;24.50;99.90;;;;;;5076148;28;20032;-48
2022/11/02 10:48:22;;;;;;;24.08;13.98;;;24.50;99.90;;;;;;5075771;28;20100;-48
2022/11/02 10:51:04;;;;;;;22.83;13.68;;;24.50;99.90;;;;;;5057873;28;20017;-48
2022/11/02 10:53:35;;;;;;;34.17;15.48;;;24.50;99.90;;;;;;5075931;28;20073;-47
2022/11/02 10:56:17;;;;;;;21.88;13.60;;;24.50;99.90;;;;;;5075699;28;20021;-48
2022/11/02 10:59:08;;;;;;;17.23;9.55;;;24.60;99.90;;;;;;5075740;28;20467;-48
2022/11/02 11:01:34;;;;;;;23.95;14.05;;;24.70;99.90;;;;;;5074971;28;20055;-49
2022/11/02 11:04:06;;;;;;;15.98;9.07;;;24.70;99.90;;;;;;5057763;28;20028;-48
2022/11/02 11:06:42;;;;;;;14.95;9.32;;;24.80;99.90;;;;;;5075562;28;20553;-49
2022/11/02 11:09:21;;;;;;;17.50;11.65;;;24.90;99.90;;;;;;5074511;28;20033;-49
2022/11/02 11:11:58;;;;;;;28.85;11.00;;;25.00;99.90;;;;;;5075738;28;20069;-48
2022/11/02 11:14:28;;;;;;;22.10;12.10;;;25.00;99.90;;;;;;5075437;28;20020;-48
2022/11/02 11:16:58;;;;;;;14.43;9.23;;;25.10;99.90;;;;;;5075460;28;20059;-48
2022/11/02 11:19:53;;;;;;;16.45;10.15;;;25.20;99.90;;;;;;5075330;28;20491;-48
2022/11/02 11:22:29;;;;;;;20.08;10.27;;;25.30;99.90;;;;;;5057812;28;20045;-48
2022/11/02 11:25:17;;;;;;;26.48;12.02;;;25.30;99.90;;;;;;5075328;28;20025;-48
2022/11/02 11:27:48;;;;;;;17.65;9.60;;;25.40;99.90;;;;;;5074986;28;20349;-48
2022/11/02 11:30:35;;;;;;;17.85;10.82;;;25.40;99.90;;;;;;5057377;28;20434;-48
2022/11/02 11:33:04;;;;;;;24.42;13.43;;;25.50;99.90;;;;;;5075317;28;20012;-48
2022/11/02 11:35:49;;;;;;;24.10;12.15;;;25.50;99.90;;;;;;5074971;28;20033;-48
2022/11/02 11:38:20;;;;;;;19.02;11.32;;;25.60;99.90;;;;;;5075011;28;20023;-48
2022/11/02 11:40:52;;;;;;;22.77;12.65;;;25.60;99.90;;;;;;5075079;28;20342;-48
2022/11/02 11:43:20;;;;;;;22.08;12.75;;;25.70;99.90;;;;;;5056907;28;20033;-48
2022/11/02 11:46:06;;;;;;;27.60;11.95;;;25.70;99.90;;;;;;5074779;28;20400;-47
2022/11/02 11:48:59;;;;;;;19.15;12.05;;;25.70;99.90;;;;;;5074745;28;20024;-47
2022/11/02 11:51:40;;;;;;;20.95;10.32;;;25.70;99.90;;;;;;5070687;28;20033;-47
2022/11/02 11:54:27;;;;;;;24.08;12.57;;;25.80;99.90;;;;;;5074676;28;20052;-48
2022/11/02 11:57:20;;;;;;;16.35;12.15;;;25.80;99.90;;;;;;5074585;28;20043;-48
2022/11/02 11:59:50;;;;;;;17.50;9.93;;;25.80;99.90;;;;;;5074451;28;20024;-47
2022/11/02 12:02:25;;;;;;;15.48;9.63;;;25.80;99.90;;;;;;5056612;28;20493;-48
2022/11/02 12:05:17;;;;;;;23.27;10.68;;;25.80;99.90;;;;;;5056678;28;20085;-48
2022/11/02 12:08:13;;;;;;;20.45;11.30;;;25.80;99.90;;;;;;5073764;28;20064;-48
2022/11/02 12:10:47;;;;;;;16.02;11.10;;;25.80;99.90;;;;;;5074318;28;20059;-48
2022/11/02 12:13:46;;;;;;;26.52;14.10;;;25.80;99.90;;;;;;5074280;28;20500;-48
2022/11/02 12:16:20;;;;;;;25.15;14.88;;;25.80;99.90;;;;;;5029549;28;20086;-49
2022/11/02 12:18:48;;;;;;;22.20;13.50;;;25.80;99.90;;;;;;5074184;28;20017;-48
2022/11/02 12:21:44;;;;;;;16.90;11.18;;;25.80;99.90;;;;;;5073934;28;20032;-49
2022/11/02 12:24:18;;;;;;;21.33;12.50;;;25.80;99.90;;;;;;5074087;28;20036;-48
2022/11/02 12:27:06;;;;;;;19.17;12.40;;;25.80;99.90;;;;;;5073871;28;20384;-48
2022/11/02 12:29:43;;;;;;;23.25;16.02;;;25.80;99.90;;;;;;5073828;28;20484;-48
2022/11/02 12:32:17;;;;;;;21.45;14.55;;;25.80;99.90;;;;;;5074043;28;20510;-48
2022/11/02 12:35:28;;;;;;;27.48;13.50;;;25.80;99.90;;;;;;5073837;28;20033;-49
2022/11/02 12:38:18;;;;;;;17.10;10.25;;;25.70;99.90;;;;;;5053395;28;20035;-48
2022/11/02 12:41:05;;;;;;;23.02;12.73;;;25.80;99.90;;;;;;5073693;28;20031;-48
2022/11/02 12:43:44;;;;;;;19.90;11.45;;;25.80;99.90;;;;;;5073844;28;20033;-48
2022/11/02 12:46:18;;;;;;;22.73;13.13;;;25.90;99.90;;;;;;5073843;28;20029;-48
2022/11/02 12:49:11;;;;;;;23.63;13.27;;;25.90;99.90;;;;;;5073548;28;20484;-48
2022/11/02 12:51:49;;;;;;;20.63;12.38;;;26.00;99.90;;;;;;5073655;28;20028;-49
2022/11/02 12:54:20;;;;;;;25.38;12.05;;;26.10;99.90;;;;;;5055686;28;20415;-49
2022/11/02 12:56:49;;;;;;;20.85;10.35;;;26.20;99.90;;;;;;5073730;28;20052;-48
2022/11/02 12:59:22;;;;;;;22.00;12.73;;;26.30;99.90;;;;;;5073399;28;20443;-48
2022/11/02 13:01:53;;;;;;;19.45;10.35;;;26.40;99.90;;;;;;5073051;28;20047;-48